Rutland, OH

1:02 PM EDT on April 24, 2017 (GMT -0400)
Outside Rutland | | Change Station

Elev 715 ft 39.04 °N, 82.11 °W | Updated 12 seconds ago

Overcast
Overcast
65.2 °F
Feels Like 65.2 °F
N
6.0
Wind Variable Wind from ESE

Today
High -- | Low -- °F
--% Chance of Precip.
Yesterday
High -- | Low -- °F
Precip. -- in
Pressure 29.93 in
Visibility 7.0 miles
Clouds Mostly Cloudy 3700 ft
Overcast 4600 ft
Dew Point 49 °F
Humidity 55%
Rainfall 0.00 in
Snow Depth Not available.
6:38 AM 8:14 PM
Waning Crescent, 5% visible
METAR KUNI 241655Z AUTO 04009KT 7SM BKN037 OVC046 17/09 A2993 RMK AO2 T01650093
Pressure 29.93 in
Visibility 7.0 miles
Clouds Mostly Cloudy 3700 ft
Overcast 4600 ft
Dew Point 49 °F
Humidity 55%
Rainfall 0.00 in
Snow Depth Not available.
6:38 AM 8:14 PM
Waning Crescent, 5% visible
METAR KUNI 241655Z AUTO 04009KT 7SM BKN037 OVC046 17/09 A2993 RMK AO2 T01650093

Get Severe Weather Alerts

Thanks for signing up!

Be on the lookout for a verification email in your inbox.

You'll start receiving the daily forecast at 8 AM.

×

10-Day Weather Forecast

Almanac

Astronomy

Apr. 24, 2017 Rise Set
Actual Time
Civil Twilight
Nautical Twilight
Astronomical Twilight
Moon
Length of Visible Light
Length of Day
Tomorrow will be .
, % of the Moon is Illuminated

Today's Extremes

State Highs State Lows

Community

WunderPhotos

WunderBlog® & News

Nearby

Air Quality

  Air Quality AQ Index Pollutant
Not available.

Snow Depth

Station Depth Elevation

Earthquake Activity

City Distance Mag. Time & Date
Minimum magnitude displayed is 2.5.

Coastal Water Temperatures

Place Temperature

Stations

Nearby Weather Stations

Station Location Temp. Windchill Dew Point Humidity Wind Precip. Elev Updated Type
                   

Watches & Warnings

There are currently no watches in effect.